Time;durP1;ratioP1;P1;durP2;ratioP2;P2;SDS_P1;SDS_P2;PMS_P1;PMS_P2;Temp;Humidity;BMP_temperature;BMP_pressure;BME280_temperature;BME280_humidity;BME280_pressure;Samples;Min_cycle;Max_cycle;Signal;HPM_P1;HPM_P2
2024/01/10 00:02:14;;;;;;;18.27;11.97;;;;;;;;;;4954055;28;20969;-82
2024/01/10 00:04:40;;;;;;;15.77;11.10;;;;;;;;;;4954207;28;20521;-83
2024/01/10 00:07:05;;;;;;;12.50;10.20;;;;;;;;;;4955473;28;20421;-83
2024/01/10 00:09:31;;;;;;;19.47;12.00;;;;;;;;;;4955382;28;20960;-83
2024/01/10 00:11:57;;;;;;;18.33;11.90;;;;;;;;;;4955409;28;20440;-83
2024/01/10 00:14:23;;;;;;;15.00;11.60;;;;;;;;;;4955443;28;20488;-83
2024/01/10 00:16:49;;;;;;;16.30;11.97;;;;;;;;;;4955014;28;20425;-83
2024/01/10 00:19:15;;;;;;;19.10;11.80;;;;;;;;;;4955444;28;20432;-82
2024/01/10 00:21:41;;;;;;;17.97;12.03;;;;;;;;;;4955102;28;20446;-82
2024/01/10 00:24:07;;;;;;;20.03;13.47;;;;;;;;;;4955223;28;20427;-82
2024/01/10 00:26:33;;;;;;;20.20;12.53;;;;;;;;;;4955220;28;20799;-82
2024/01/10 00:28:59;;;;;;;15.53;10.63;;;;;;;;;;4953793;28;20965;-82
2024/01/10 00:31:25;;;;;;;18.70;13.00;;;;;;;;;;4953763;28;20441;-85
2024/01/10 00:33:50;;;;;;;15.80;11.43;;;;;;;;;;4954907;28;20480;-84
2024/01/10 00:36:16;;;;;;;20.53;13.00;;;;;;;;;;4954525;28;20481;-84
2024/01/10 00:38:45;;;;;;;24.50;12.97;;;;;;;;;;4949502;28;20445;-84
2024/01/10 00:41:12;;;;;;;19.40;13.10;;;;;;;;;;4944038;29;20421;-83
2024/01/10 00:43:38;;;;;;;17.93;11.93;;;;;;;;;;4944328;28;20438;-82
2024/01/10 00:46:04;;;;;;;23.87;14.07;;;;;;;;;;4945833;29;20457;-82
2024/01/10 00:48:30;;;;;;;18.83;12.87;;;;;;;;;;4943653;29;20414;-85
2024/01/10 00:50:56;;;;;;;18.50;13.17;;;;;;;;;;4944779;28;20540;-85
2024/01/10 00:53:22;;;;;;;20.30;13.23;;;;;;;;;;4944693;29;21002;-86
2024/01/10 00:55:48;;;;;;;18.60;12.70;;;;;;;;;;4944092;29;20419;-86
2024/01/10 00:58:14;;;;;;;19.60;14.90;;;;;;;;;;4944925;28;20444;-83
2024/01/10 01:00:40;;;;;;;20.93;15.03;;;;;;;;;;4945683;29;20505;-82
2024/01/10 01:03:06;;;;;;;21.23;13.20;;;;;;;;;;4906609;28;20439;-84
2024/01/10 01:05:32;;;;;;;22.37;14.77;;;;;;;;;;4943964;28;20807;-83
2024/01/10 01:07:58;;;;;;;23.30;15.10;;;;;;;;;;4944380;28;20417;-83
2024/01/10 01:10:24;;;;;;;23.17;15.30;;;;;;;;;;4945641;29;20468;-82
2024/01/10 01:12:50;;;;;;;24.50;13.20;;;;;;;;;;4942945;29;20410;-83
2024/01/10 01:15:16;;;;;;;27.50;16.17;;;;;;;;;;4944530;28;20432;-82
2024/01/10 01:17:41;;;;;;;21.03;13.97;;;;;;;;;;4945455;29;20421;-82
2024/01/10 01:20:08;;;;;;;22.67;13.83;;;;;;;;;;4946347;28;20419;-83
2024/01/10 01:22:37;;;;;;;23.63;15.27;;;;;;;;;;4944746;28;20422;-82
2024/01/10 01:25:03;;;;;;;22.83;14.70;;;;;;;;;;4944367;29;20422;-82
2024/01/10 01:27:29;;;;;;;20.70;13.90;;;;;;;;;;4943818;29;20502;-83
2024/01/10 01:29:55;;;;;;;23.13;14.70;;;;;;;;;;4944385;28;20470;-81
2024/01/10 01:32:21;;;;;;;22.10;14.67;;;;;;;;;;4945064;29;20433;-82
2024/01/10 01:34:46;;;;;;;22.23;14.50;;;;;;;;;;4943360;28;20915;-82
2024/01/10 01:37:12;;;;;;;20.57;14.37;;;;;;;;;;4944757;28;20421;-82
2024/01/10 01:39:39;;;;;;;17.53;14.90;;;;;;;;;;4943726;29;20490;-82
2024/01/10 01:42:05;;;;;;;25.00;15.10;;;;;;;;;;4943575;28;20500;-82
2024/01/10 01:44:31;;;;;;;20.80;15.67;;;;;;;;;;4943318;29;20918;-82
2024/01/10 01:46:58;;;;;;;20.20;14.30;;;;;;;;;;4944415;29;20412;-80
2024/01/10 01:49:25;;;;;;;17.80;13.10;;;;;;;;;;4945392;28;20465;-81
2024/01/10 01:51:51;;;;;;;28.83;15.00;;;;;;;;;;4948650;28;20412;-80
2024/01/10 01:54:17;;;;;;;21.47;13.40;;;;;;;;;;4946885;29;20461;-81
2024/01/10 01:56:44;;;;;;;23.10;14.23;;;;;;;;;;4947162;28;20962;-81
2024/01/10 01:59:10;;;;;;;24.60;14.43;;;;;;;;;;4948418;28;20413;-82
2024/01/10 02:01:37;;;;;;;19.40;14.10;;;;;;;;;;4947775;29;20417;-82
2024/01/10 02:04:02;;;;;;;21.03;15.80;;;;;;;;;;4946808;28;20422;-83
2024/01/10 02:06:29;;;;;;;19.30;13.87;;;;;;;;;;4910429;28;20771;-84
2024/01/10 02:08:56;;;;;;;19.70;14.37;;;;;;;;;;4947934;29;20464;-83
2024/01/10 02:11:22;;;;;;;23.60;13.67;;;;;;;;;;4946770;28;20432;-85
2024/01/10 02:13:48;;;;;;;23.00;16.30;;;;;;;;;;4947381;29;20775;-83
2024/01/10 02:16:14;;;;;;;23.63;16.20;;;;;;;;;;4946250;29;20512;-83
2024/01/10 02:18:40;;;;;;;23.17;13.70;;;;;;;;;;4949409;28;20586;-82
2024/01/10 02:21:06;;;;;;;21.83;14.63;;;;;;;;;;4947060;28;20918;-83
2024/01/10 02:23:32;;;;;;;18.50;12.30;;;;;;;;;;4948408;29;20521;-82
2024/01/10 02:25:58;;;;;;;17.43;12.93;;;;;;;;;;4946809;29;20457;-83
2024/01/10 02:28:23;;;;;;;24.10;14.87;;;;;;;;;;4947208;28;20443;-82
2024/01/10 02:30:51;;;;;;;18.83;13.43;;;;;;;;;;4946706;29;21148;-83
2024/01/10 02:33:17;;;;;;;19.83;14.40;;;;;;;;;;4946701;29;20425;-83
2024/01/10 02:35:42;;;;;;;17.23;13.43;;;;;;;;;;4945667;28;20465;-83
2024/01/10 02:38:08;;;;;;;22.17;14.50;;;;;;;;;;4948083;29;20449;-83
2024/01/10 02:40:34;;;;;;;21.47;16.50;;;;;;;;;;4936885;29;20852;-83
2024/01/10 02:43:00;;;;;;;19.90;14.37;;;;;;;;;;4938231;29;20965;-83
2024/01/10 02:45:26;;;;;;;27.23;17.10;;;;;;;;;;4937641;29;20476;-83
2024/01/10 02:47:52;;;;;;;34.60;17.43;;;;;;;;;;4938114;29;20410;-82
2024/01/10 02:50:18;;;;;;;32.03;16.37;;;;;;;;;;4937929;29;20569;-83
2024/01/10 02:52:44;;;;;;;33.53;18.90;;;;;;;;;;4937917;29;20409;-83
2024/01/10 02:55:10;;;;;;;34.83;16.87;;;;;;;;;;4936783;29;20899;-83
2024/01/10 02:57:36;;;;;;;29.77;17.53;;;;;;;;;;4937874;29;20445;-83
2024/01/10 03:00:04;;;;;;;21.00;13.10;;;;;;;;;;4936462;29;20504;-83
2024/01/10 03:02:30;;;;;;;27.30;15.40;;;;;;;;;;4937513;29;20773;-82
2024/01/10 03:04:56;;;;;;;26.40;16.47;;;;;;;;;;4937860;29;20429;-84
2024/01/10 03:07:24;;;;;;;26.60;18.70;;;;;;;;;;4937685;29;20414;-83
2024/01/10 03:09:50;;;;;;;24.67;16.90;;;;;;;;;;4937513;29;20469;-83
2024/01/10 03:12:16;;;;;;;31.23;17.37;;;;;;;;;;4937490;29;20401;-84
2024/01/10 03:14:42;;;;;;;31.10;16.23;;;;;;;;;;4937035;29;20958;-83
2024/01/10 03:17:08;;;;;;;25.57;16.60;;;;;;;;;;4956286;28;20417;-81
2024/01/10 03:19:34;;;;;;;25.60;14.10;;;;;;;;;;4956510;28;20416;-84
2024/01/10 03:22:00;;;;;;;25.40;16.60;;;;;;;;;;4956572;28;20797;-83
2024/01/10 03:24:27;;;;;;;28.67;16.87;;;;;;;;;;4956457;28;20416;-83
2024/01/10 03:26:53;;;;;;;38.70;17.87;;;;;;;;;;4956378;28;20893;-85
2024/01/10 03:29:21;;;;;;;25.87;17.10;;;;;;;;;;4956341;28;20464;-84
2024/01/10 03:31:47;;;;;;;22.17;13.77;;;;;;;;;;4956090;28;20445;-85
2024/01/10 03:34:13;;;;;;;29.00;16.30;;;;;;;;;;4956372;28;20929;-81
2024/01/10 03:36:39;;;;;;;25.10;15.13;;;;;;;;;;4956016;28;20465;-83
2024/01/10 03:39:05;;;;;;;29.60;16.97;;;;;;;;;;4956130;28;20520;-83
2024/01/10 03:41:31;;;;;;;22.07;14.27;;;;;;;;;;4956148;28;20421;-83
2024/01/10 03:43:57;;;;;;;24.70;15.17;;;;;;;;;;4956064;28;20420;-82
2024/01/10 03:46:23;;;;;;;29.67;16.80;;;;;;;;;;4955680;28;20890;-83
2024/01/10 03:48:49;;;;;;;21.87;13.73;;;;;;;;;;4971138;28;20471;-83
2024/01/10 03:51:16;;;;;;;23.63;15.73;;;;;;;;;;4970776;28;20434;-82
2024/01/10 03:53:42;;;;;;;26.93;15.10;;;;;;;;;;4970427;28;20891;-83
2024/01/10 03:56:08;;;;;;;19.53;13.03;;;;;;;;;;4955866;28;20515;-82
2024/01/10 03:58:34;;;;;;;20.50;12.53;;;;;;;;;;4955917;28;20409;-82
2024/01/10 04:01:00;;;;;;;15.80;10.00;;;;;;;;;;4955418;28;21022;-81
2024/01/10 04:03:25;;;;;;;16.60;10.53;;;;;;;;;;4970600;28;20780;-82
2024/01/10 04:05:54;;;;;;;10.70;8.77;;;;;;;;;;4955671;28;20423;-82
2024/01/10 04:08:20;;;;;;;11.27;8.50;;;;;;;;;;4955591;28;20425;-82
2024/01/10 04:10:46;;;;;;;11.47;9.03;;;;;;;;;;4955198;28;20475;-81
2024/01/10 04:13:12;;;;;;;13.80;9.00;;;;;;;;;;4955342;28;20894;-82
2024/01/10 04:15:38;;;;;;;9.93;8.00;;;;;;;;;;4955106;28;20425;-81
2024/01/10 04:18:04;;;;;;;13.90;8.77;;;;;;;;;;4955416;28;20428;-82
2024/01/10 04:20:30;;;;;;;15.67;9.10;;;;;;;;;;4955357;28;20448;-83
2024/01/10 04:22:56;;;;;;;11.43;8.90;;;;;;;;;;4955427;28;20464;-82
2024/01/10 04:25:22;;;;;;;13.77;9.77;;;;;;;;;;4955395;28;20421;-83
2024/01/10 04:27:50;;;;;;;12.60;9.80;;;;;;;;;;4955349;28;20484;-83
2024/01/10 04:30:16;;;;;;;14.77;9.70;;;;;;;;;;4969728;28;20484;-81
2024/01/10 04:32:42;;;;;;;14.23;8.70;;;;;;;;;;4970098;28;20936;-81
2024/01/10 04:35:08;;;;;;;16.13;9.23;;;;;;;;;;4969359;28;20468;-83
2024/01/10 04:37:42;;;;;;;21.53;12.10;;;;;;;;;;4955303;28;20409;-83
2024/01/10 04:40:09;;;;;;;15.83;9.60;;;;;;;;;;4955187;28;20486;-81
2024/01/10 04:42:35;;;;;;;13.50;8.87;;;;;;;;;;4955167;28;20443;-82
2024/01/10 04:45:00;;;;;;;14.93;11.20;;;;;;;;;;4970211;28;20925;-81
2024/01/10 04:47:26;;;;;;;15.93;10.10;;;;;;;;;;4954760;28;20416;-81
2024/01/10 04:49:52;;;;;;;16.47;10.20;;;;;;;;;;4969834;28;20474;-82
2024/01/10 04:52:18;;;;;;;15.60;10.87;;;;;;;;;;4955005;28;20426;-81
2024/01/10 04:54:44;;;;;;;16.80;10.20;;;;;;;;;;4955075;28;20413;-82
2024/01/10 04:57:10;;;;;;;13.10;10.40;;;;;;;;;;4969872;28;20415;-82
2024/01/10 04:59:36;;;;;;;13.80;10.10;;;;;;;;;;4954951;28;20980;-81
2024/01/10 05:02:02;;;;;;;20.03;11.93;;;;;;;;;;4954601;28;20409;-82
2024/01/10 05:04:28;;;;;;;18.17;11.00;;;;;;;;;;4969793;28;20428;-81
2024/01/10 05:06:54;;;;;;;17.57;11.47;;;;;;;;;;4954956;28;20409;-81
2024/01/10 05:09:20;;;;;;;16.97;11.33;;;;;;;;;;4954798;28;20867;-81
2024/01/10 05:11:51;;;;;;;18.83;10.77;;;;;;;;;;4954755;28;20430;-81
2024/01/10 05:14:19;;;;;;;15.57;10.33;;;;;;;;;;4954881;28;20750;-81
2024/01/10 05:16:45;;;;;;;16.40;10.30;;;;;;;;;;4954430;28;20422;-81
2024/01/10 05:19:11;;;;;;;16.10;11.57;;;;;;;;;;4954903;28;20840;-82
2024/01/10 05:21:39;;;;;;;19.80;9.60;;;;;;;;;;4969520;28;20454;-81
2024/01/10 05:24:06;;;;;;;15.87;11.83;;;;;;;;;;4956492;28;20422;-81
2024/01/10 05:26:32;;;;;;;18.73;12.10;;;;;;;;;;4958598;28;20432;-81
2024/01/10 05:28:58;;;;;;;20.30;12.03;;;;;;;;;;4958427;28;20415;-80
2024/01/10 05:31:23;;;;;;;17.10;11.83;;;;;;;;;;4958060;28;20477;-80
2024/01/10 05:33:49;;;;;;;13.80;10.37;;;;;;;;;;4958476;28;20823;-81
2024/01/10 05:36:15;;;;;;;17.40;11.23;;;;;;;;;;4958157;28;20479;-82
2024/01/10 05:38:41;;;;;;;15.30;10.80;;;;;;;;;;4958436;28;20481;-79
2024/01/10 05:41:07;;;;;;;21.60;13.43;;;;;;;;;;4958293;28;20409;-81
2024/01/10 05:43:33;;;;;;;23.10;13.80;;;;;;;;;;4973125;28;20978;-80
2024/01/10 05:46:00;;;;;;;16.63;12.33;;;;;;;;;;4957988;28;20453;-83
2024/01/10 05:48:26;;;;;;;15.80;10.17;;;;;;;;;;4973121;28;20510;-82
2024/01/10 05:50:52;;;;;;;14.17;10.60;;;;;;;;;;4972871;28;21074;-83
2024/01/10 05:53:24;;;;;;;26.13;14.13;;;;;;;;;;4958039;28;20417;-84
2024/01/10 05:55:51;;;;;;;17.47;11.20;;;;;;;;;;4907358;28;20437;-83
2024/01/10 05:58:17;;;;;;;20.33;13.20;;;;;;;;;;4938893;29;20422;-83
2024/01/10 06:00:42;;;;;;;17.80;11.40;;;;;;;;;;4938499;29;20516;-84
2024/01/10 06:03:09;;;;;;;22.10;12.30;;;;;;;;;;4937441;29;20417;-83
2024/01/10 06:05:35;;;;;;;23.70;11.33;;;;;;;;;;4938634;29;20423;-83
2024/01/10 06:08:03;;;;;;;25.73;10.43;;;;;;;;;;4938494;29;20907;-83
2024/01/10 06:10:29;;;;;;;31.70;11.30;;;;;;;;;;4938573;29;20566;-82
2024/01/10 06:12:56;;;;;;;14.73;10.27;;;;;;;;;;4938619;29;20557;-82
2024/01/10 06:15:22;;;;;;;14.57;10.73;;;;;;;;;;4938080;29;20446;-83
2024/01/10 06:17:49;;;;;;;13.73;9.53;;;;;;;;;;4938529;29;20439;-82
2024/01/10 06:20:15;;;;;;;18.27;10.97;;;;;;;;;;4938428;29;20419;-82
2024/01/10 06:22:41;;;;;;;18.90;10.40;;;;;;;;;;4938101;29;20428;-83
2024/01/10 06:25:07;;;;;;;18.47;10.77;;;;;;;;;;4936807;29;20512;-82
2024/01/10 06:27:33;;;;;;;16.57;11.20;;;;;;;;;;4937989;29;20513;-82
2024/01/10 06:29:59;;;;;;;17.03;11.90;;;;;;;;;;4937649;29;20479;-83
2024/01/10 06:32:25;;;;;;;20.97;11.07;;;;;;;;;;4938044;29;20746;-83
2024/01/10 06:34:52;;;;;;;24.40;13.37;;;;;;;;;;4937367;29;20785;-82
2024/01/10 06:37:18;;;;;;;17.07;10.50;;;;;;;;;;4947840;28;20438;-83
2024/01/10 06:39:45;;;;;;;19.30;9.80;;;;;;;;;;4945725;29;20506;-83
2024/01/10 06:42:11;;;;;;;24.53;11.93;;;;;;;;;;4946335;28;20843;-83
2024/01/10 06:44:37;;;;;;;26.90;12.47;;;;;;;;;;4947983;29;20416;-83
2024/01/10 06:47:03;;;;;;;16.87;11.87;;;;;;;;;;4944223;29;20417;-83
2024/01/10 06:49:29;;;;;;;17.97;11.57;;;;;;;;;;4947103;28;20471;-83
2024/01/10 06:51:55;;;;;;;18.67;11.10;;;;;;;;;;4947361;29;20516;-82
2024/01/10 06:54:21;;;;;;;16.43;10.33;;;;;;;;;;4945597;28;20523;-83
2024/01/10 06:56:47;;;;;;;22.23;12.30;;;;;;;;;;4913490;28;20462;-83
2024/01/10 06:59:13;;;;;;;21.57;13.33;;;;;;;;;;4946984;28;20424;-83
2024/01/10 07:01:39;;;;;;;21.93;11.93;;;;;;;;;;4944253;29;20472;-83
2024/01/10 07:04:05;;;;;;;19.30;11.93;;;;;;;;;;4948413;28;20949;-83
2024/01/10 07:06:31;;;;;;;16.30;9.40;;;;;;;;;;4949008;29;20481;-84
2024/01/10 07:08:58;;;;;;;18.80;13.50;;;;;;;;;;4945838;29;20429;-83
2024/01/10 07:11:24;;;;;;;27.27;14.20;;;;;;;;;;4945369;28;20430;-82
2024/01/10 07:13:50;;;;;;;17.33;11.03;;;;;;;;;;4947263;29;21016;-82
2024/01/10 07:16:16;;;;;;;16.77;10.90;;;;;;;;;;4945298;29;20429;-82
2024/01/10 07:18:43;;;;;;;24.00;10.50;;;;;;;;;;4945022;29;20420;-81
2024/01/10 07:21:10;;;;;;;18.00;10.87;;;;;;;;;;4947623;29;20417;-82
2024/01/10 07:23:38;;;;;;;14.87;8.77;;;;;;;;;;4944979;29;20409;-81
2024/01/10 07:26:04;;;;;;;19.50;11.83;;;;;;;;;;4947305;29;20412;-80
2024/01/10 07:28:32;;;;;;;20.60;11.90;;;;;;;;;;4945372;28;20414;-82
2024/01/10 07:30:58;;;;;;;16.53;10.00;;;;;;;;;;4945030;29;20476;-80
2024/01/10 07:33:23;;;;;;;22.10;12.90;;;;;;;;;;4945553;29;20432;-80
2024/01/10 07:35:50;;;;;;;14.13;10.47;;;;;;;;;;4945430;28;20465;-81
2024/01/10 07:38:16;;;;;;;14.43;9.57;;;;;;;;;;4947033;28;20493;-81
2024/01/10 07:40:42;;;;;;;16.40;10.50;;;;;;;;;;4947096;29;20423;-81
2024/01/10 07:43:08;;;;;;;13.77;10.27;;;;;;;;;;4944155;29;20445;-81
2024/01/10 07:45:34;;;;;;;20.10;12.60;;;;;;;;;;4947460;28;20455;-81
2024/01/10 07:48:00;;;;;;;21.53;12.00;;;;;;;;;;4946474;29;20428;-83
2024/01/10 07:50:27;;;;;;;22.30;12.33;;;;;;;;;;4945314;28;20877;-81
2024/01/10 07:52:54;;;;;;;16.80;12.87;;;;;;;;;;4946970;28;20411;-81
2024/01/10 07:55:20;;;;;;;20.50;12.97;;;;;;;;;;4945054;29;20428;-82
2024/01/10 07:57:46;;;;;;;18.07;11.47;;;;;;;;;;4945121;28;20417;-80
2024/01/10 08:00:13;;;;;;;17.47;12.53;;;;;;;;;;4946171;29;20983;-82
2024/01/10 08:02:40;;;;;;;16.33;11.60;;;;;;;;;;4913016;28;20956;-82
2024/01/10 08:05:09;;;;;;;29.00;18.00;;;;;;;;;;4940572;29;20507;-83
2024/01/10 08:07:38;;;;;;;24.97;13.10;;;;;;;;;;4944227;28;20918;-81
2024/01/10 08:10:09;;;;;;;20.20;13.13;;;;;;;;;;4945191;29;20473;-82
2024/01/10 08:12:36;;;;;;;30.23;15.10;;;;;;;;;;4944569;28;20422;-82
2024/01/10 08:15:02;;;;;;;18.27;11.70;;;;;;;;;;4964490;28;20454;-83
2024/01/10 08:17:28;;;;;;;18.90;11.30;;;;;;;;;;4944607;28;20429;-82
2024/01/10 08:19:54;;;;;;;21.40;12.77;;;;;;;;;;4944884;29;20890;-82
2024/01/10 08:22:20;;;;;;;14.27;8.70;;;;;;;;;;4945047;29;20925;-82
2024/01/10 08:24:47;;;;;;;15.47;10.20;;;;;;;;;;4944503;28;20419;-82
2024/01/10 08:27:16;;;;;;;14.00;9.10;;;;;;;;;;4949394;29;20491;-83
2024/01/10 08:29:46;;;;;;;10.37;8.97;;;;;;;;;;4942888;28;21052;-87
2024/01/10 08:32:12;;;;;;;15.00;10.13;;;;;;;;;;4935825;29;20480;-83
2024/01/10 08:34:41;;;;;;;15.40;8.90;;;;;;;;;;4934116;29;20436;-85
2024/01/10 08:37:07;;;;;;;10.63;8.17;;;;;;;;;;4944706;29;20448;-90
2024/01/10 08:39:36;;;;;;;11.80;8.07;;;;;;;;;;4964718;28;20428;-88
2024/01/10 08:42:02;;;;;;;13.53;7.53;;;;;;;;;;4947420;28;20788;-86
2024/01/10 08:44:28;;;;;;;13.07;8.10;;;;;;;;;;4960406;28;20416;-88
2024/01/10 08:46:54;;;;;;;11.30;7.10;;;;;;;;;;4943419;29;20475;-85
2024/01/10 08:49:20;;;;;;;17.27;8.93;;;;;;;;;;4949913;29;20459;-85
2024/01/10 08:51:46;;;;;;;14.17;7.07;;;;;;;;;;4944649;29;20421;-84
2024/01/10 08:54:16;;;;;;;12.77;8.33;;;;;;;;;;4945138;28;20408;-85
2024/01/10 08:56:45;;;;;;;11.80;7.63;;;;;;;;;;4947272;29;20449;-84
2024/01/10 08:59:12;;;;;;;10.47;7.80;;;;;;;;;;4947816;28;20484;-86
2024/01/10 09:01:41;;;;;;;12.77;7.33;;;;;;;;;;4945759;29;20458;-88
2024/01/10 09:04:07;;;;;;;14.27;6.87;;;;;;;;;;4947801;29;20499;-87
2024/01/10 09:06:35;;;;;;;11.40;7.40;;;;;;;;;;4953881;28;20415;-87
2024/01/10 09:09:01;;;;;;;9.80;6.20;;;;;;;;;;4944090;28;20412;-86
2024/01/10 09:11:27;;;;;;;7.17;5.40;;;;;;;;;;4952724;28;20428;-87
2024/01/10 09:13:53;;;;;;;10.93;6.80;;;;;;;;;;4947512;28;20552;-85
2024/01/10 09:16:19;;;;;;;9.17;6.77;;;;;;;;;;4929226;28;20445;-83
2024/01/10 09:18:45;;;;;;;12.13;6.73;;;;;;;;;;4949813;28;20850;-84
2024/01/10 09:21:14;;;;;;;11.90;6.90;;;;;;;;;;4948971;28;20424;-84
2024/01/10 09:23:40;;;;;;;12.13;6.43;;;;;;;;;;4949073;28;20416;-83
2024/01/10 09:26:06;;;;;;;12.10;6.20;;;;;;;;;;4954655;28;20483;-84
2024/01/10 09:28:31;;;;;;;9.30;5.73;;;;;;;;;;4939433;28;20421;-85
2024/01/10 09:30:57;;;;;;;11.67;6.83;;;;;;;;;;4947050;29;20815;-87
2024/01/10 09:33:24;;;;;;;12.10;6.93;;;;;;;;;;4954787;28;20420;-86
2024/01/10 09:35:50;;;;;;;10.90;8.30;;;;;;;;;;4952782;29;20492;-87
2024/01/10 09:38:17;;;;;;;11.80;7.47;;;;;;;;;;4941724;29;20457;-84
2024/01/10 09:40:43;;;;;;;12.03;8.17;;;;;;;;;;4967194;28;20510;-85
2024/01/10 09:43:09;;;;;;;11.60;6.43;;;;;;;;;;4947936;28;20496;-86
2024/01/10 09:45:46;;;;;;;11.33;8.10;;;;;;;;;;4943552;29;20502;-87
2024/01/10 09:48:13;;;;;;;12.97;9.10;;;;;;;;;;4943191;29;20472;-85
2024/01/10 09:50:39;;;;;;;10.63;6.80;;;;;;;;;;4954711;28;20588;-87
2024/01/10 09:53:09;;;;;;;11.57;7.83;;;;;;;;;;4943831;29;20503;-87
2024/01/10 09:55:35;;;;;;;15.83;10.70;;;;;;;;;;4953102;29;20416;-87
2024/01/10 09:58:08;;;;;;;10.33;6.10;;;;;;;;;;4954475;28;20508;-91
2024/01/10 10:00:35;;;;;;;12.90;8.80;;;;;;;;;;4953058;29;20427;-78
2024/01/10 10:03:02;;;;;;;15.57;10.00;;;;;;;;;;4954180;29;20437;-80
2024/01/10 10:05:28;;;;;;;9.83;6.23;;;;;;;;;;4954707;28;20417;-77
2024/01/10 10:07:54;;;;;;;15.90;9.57;;;;;;;;;;4952897;29;20940;-84
2024/01/10 10:10:20;;;;;;;12.63;7.90;;;;;;;;;;4956509;28;20503;-86
2024/01/10 10:12:47;;;;;;;12.60;7.30;;;;;;;;;;4957992;28;20495;-79
2024/01/10 10:15:17;;;;;;;9.93;7.70;;;;;;;;;;4957583;28;20416;-82
2024/01/10 10:17:47;;;;;;;10.77;7.57;;;;;;;;;;4910602;29;20440;-85
2024/01/10 10:20:20;;;;;;;13.07;8.00;;;;;;;;;;4957652;28;20417;-82
2024/01/10 10:23:04;;;;;;;12.47;7.17;;;;;;;;;;4957609;28;20405;-84
2024/01/10 10:25:33;;;;;;;11.63;7.97;;;;;;;;;;4957620;28;20439;-87
2024/01/10 10:27:59;;;;;;;12.90;8.60;;;;;;;;;;4956389;28;20483;-88
2024/01/10 10:30:26;;;;;;;14.63;9.17;;;;;;;;;;4956454;28;20997;-83
2024/01/10 10:32:53;;;;;;;13.00;8.90;;;;;;;;;;4957864;28;20404;-92
2024/01/10 10:35:20;;;;;;;17.30;8.77;;;;;;;;;;4959216;28;20487;-82
2024/01/10 10:37:46;;;;;;;11.47;7.93;;;;;;;;;;4956828;28;20847;-88
2024/01/10 10:40:13;;;;;;;12.60;8.90;;;;;;;;;;4959301;28;20485;-85
2024/01/10 10:42:41;;;;;;;11.27;7.17;;;;;;;;;;4959854;28;20416;-86
2024/01/10 10:45:07;;;;;;;16.87;9.53;;;;;;;;;;4959457;28;20977;-90
2024/01/10 10:47:38;;;;;;;14.80;9.20;;;;;;;;;;4958977;28;20418;-88
2024/01/10 10:50:09;;;;;;;16.17;10.20;;;;;;;;;;4959787;28;20472;-84
2024/01/10 10:52:39;;;;;;;9.97;7.77;;;;;;;;;;4960629;28;20422;-95
2024/01/10 10:55:05;;;;;;;11.63;7.60;;;;;;;;;;4957483;28;20405;-86
2024/01/10 10:57:31;;;;;;;10.43;7.87;;;;;;;;;;4957556;28;20426;-84
2024/01/10 10:59:57;;;;;;;11.10;7.67;;;;;;;;;;4956140;28;20499;-92
2024/01/10 11:02:23;;;;;;;9.97;8.30;;;;;;;;;;4957764;28;20479;-91
2024/01/10 11:04:49;;;;;;;8.80;6.20;;;;;;;;;;4957560;28;20429;-89
2024/01/10 11:07:15;;;;;;;8.47;5.37;;;;;;;;;;4956291;28;20414;-84
2024/01/10 11:09:42;;;;;;;8.87;6.20;;;;;;;;;;4957550;28;20465;-91
2024/01/10 11:12:28;;;;;;;14.77;10.87;;;;;;;;;;4957287;28;20453;-84
2024/01/10 11:15:09;;;;;;;12.37;9.53;;;;;;;;;;4957312;28;20498;-84
2024/01/10 11:17:53;;;;;;;10.57;7.23;;;;;;;;;;4957394;28;20441;-87
2024/01/10 11:20:38;;;;;;;10.30;6.20;;;;;;;;;;4956707;28;20502;-85
2024/01/10 11:23:06;;;;;;;8.33;5.77;;;;;;;;;;4956849;28;20425;-92
2024/01/10 11:25:35;;;;;;;6.23;5.17;;;;;;;;;;4956808;28;20417;-84
2024/01/10 11:28:07;;;;;;;6.53;4.40;;;;;;;;;;4956617;28;20409;-85
2024/01/10 11:30:37;;;;;;;5.80;4.23;;;;;;;;;;4955161;28;20478;-85
2024/01/10 11:33:23;;;;;;;5.60;4.00;;;;;;;;;;4957380;28;20438;-88
2024/01/10 11:36:11;;;;;;;8.17;4.33;;;;;;;;;;4956866;29;20477;-89
2024/01/10 11:38:54;;;;;;;6.07;4.43;;;;;;;;;;4957686;28;20423;-87
2024/01/10 11:41:28;;;;;;;6.00;3.67;;;;;;;;;;4955326;28;20928;-84
2024/01/10 11:44:13;;;;;;;8.90;5.23;;;;;;;;;;4954896;28;20441;-84
2024/01/10 11:46:43;;;;;;;11.37;6.87;;;;;;;;;;4955049;28;20416;-83
2024/01/10 11:49:15;;;;;;;6.80;4.70;;;;;;;;;;4956464;28;20473;-82
2024/01/10 11:51:44;;;;;;;9.17;5.97;;;;;;;;;;4956461;28;20444;-84
2024/01/10 11:54:10;;;;;;;7.93;5.30;;;;;;;;;;4956211;28;20460;-86
2024/01/10 11:56:39;;;;;;;10.50;6.57;;;;;;;;;;4955963;28;20429;-83
2024/01/10 11:59:12;;;;;;;7.93;5.33;;;;;;;;;;4954444;29;20415;-84
2024/01/10 12:01:39;;;;;;;11.07;6.87;;;;;;;;;;4956026;28;20469;-84
2024/01/10 12:04:12;;;;;;;10.90;5.60;;;;;;;;;;4955781;28;21014;-85
2024/01/10 12:06:38;;;;;;;10.70;6.23;;;;;;;;;;4954688;29;20433;-86
2024/01/10 12:09:14;;;;;;;11.50;7.80;;;;;;;;;;4955970;28;20463;-84
2024/01/10 12:11:40;;;;;;;10.40;6.47;;;;;;;;;;4956041;28;20426;-86
2024/01/10 12:14:06;;;;;;;9.77;6.10;;;;;;;;;;4955275;28;20408;-87
2024/01/10 12:16:35;;;;;;;10.63;6.53;;;;;;;;;;4956451;28;20425;-86
2024/01/10 12:19:01;;;;;;;14.07;8.30;;;;;;;;;;4956638;28;20408;-86
2024/01/10 12:21:27;;;;;;;15.13;12.00;;;;;;;;;;4954575;29;20904;-87
2024/01/10 12:23:53;;;;;;;10.17;6.87;;;;;;;;;;4955500;28;20415;-83
2024/01/10 12:26:19;;;;;;;8.70;5.03;;;;;;;;;;4955491;28;20514;-84
2024/01/10 12:28:58;;;;;;;8.43;5.63;;;;;;;;;;4955633;28;20413;-86
2024/01/10 12:31:25;;;;;;;8.80;5.80;;;;;;;;;;4955793;28;20514;-86
2024/01/10 12:33:51;;;;;;;10.40;6.33;;;;;;;;;;4955384;28;20543;-87
2024/01/10 12:36:17;;;;;;;9.60;6.37;;;;;;;;;;4955505;28;20549;-86
2024/01/10 12:38:47;;;;;;;9.73;6.60;;;;;;;;;;4956917;28;20445;-90
2024/01/10 12:41:14;;;;;;;8.37;6.57;;;;;;;;;;4969824;28;20493;-88
2024/01/10 12:43:43;;;;;;;10.60;6.57;;;;;;;;;;4959962;28;20972;-88
2024/01/10 12:46:10;;;;;;;10.53;7.23;;;;;;;;;;4954721;28;20477;-85
2024/01/10 12:48:37;;;;;;;8.23;5.63;;;;;;;;;;4959451;28;20437;-89
2024/01/10 12:51:07;;;;;;;11.00;6.10;;;;;;;;;;4947044;28;20910;-92
2024/01/10 12:53:35;;;;;;;10.60;6.53;;;;;;;;;;4943010;28;20930;-87
2024/01/10 12:56:01;;;;;;;8.40;6.00;;;;;;;;;;4961890;28;20487;-90
2024/01/10 12:58:27;;;;;;;10.53;7.10;;;;;;;;;;4948152;28;20431;-85
2024/01/10 13:00:53;;;;;;;10.10;5.80;;;;;;;;;;4947955;28;20435;-83
2024/01/10 13:03:19;;;;;;;8.90;5.37;;;;;;;;;;4935374;29;20418;-82
2024/01/10 13:05:45;;;;;;;8.13;5.40;;;;;;;;;;4935149;29;20412;-87
2024/01/10 13:08:11;;;;;;;10.37;9.27;;;;;;;;;;4950820;29;20424;-88
2024/01/10 13:10:40;;;;;;;7.40;5.57;;;;;;;;;;4935073;29;20568;-81
2024/01/10 13:13:06;;;;;;;9.23;5.67;;;;;;;;;;4935819;29;20422;-84
2024/01/10 13:15:32;;;;;;;8.77;5.50;;;;;;;;;;4954022;28;20421;-86
2024/01/10 13:17:58;;;;;;;6.77;5.10;;;;;;;;;;4954498;28;20420;-83
2024/01/10 13:20:24;;;;;;;6.90;5.00;;;;;;;;;;4905052;28;20438;-82
2024/01/10 13:22:53;;;;;;;7.67;4.40;;;;;;;;;;4935011;29;20773;-82
2024/01/10 13:25:22;;;;;;;7.73;6.20;;;;;;;;;;4947479;29;20417;-85
2024/01/10 13:27:49;;;;;;;6.97;4.50;;;;;;;;;;4965994;28;20456;-85
2024/01/10 13:30:15;;;;;;;7.17;5.30;;;;;;;;;;4948988;29;20468;-82
2024/01/10 13:32:41;;;;;;;8.57;5.63;;;;;;;;;;4947018;29;20407;-87
2024/01/10 13:35:07;;;;;;;7.47;5.30;;;;;;;;;;4972773;28;20483;-79
2024/01/10 13:37:33;;;;;;;8.00;4.90;;;;;;;;;;4969456;28;20426;-83
2024/01/10 13:39:59;;;;;;;6.77;4.40;;;;;;;;;;4966735;29;20419;-81
2024/01/10 13:42:26;;;;;;;8.93;5.50;;;;;;;;;;4968613;28;20413;-87
2024/01/10 13:44:52;;;;;;;7.67;5.77;;;;;;;;;;4971333;28;20463;-84
2024/01/10 13:47:21;;;;;;;10.10;5.50;;;;;;;;;;4975156;28;20411;-84
2024/01/10 13:49:47;;;;;;;11.33;5.87;;;;;;;;;;4974520;28;20467;-86
2024/01/10 13:52:13;;;;;;;7.60;4.50;;;;;;;;;;4974334;28;20415;-82
2024/01/10 13:54:39;;;;;;;9.37;5.63;;;;;;;;;;4971693;28;20482;-84
2024/01/10 13:57:06;;;;;;;8.90;6.40;;;;;;;;;;4971726;28;20405;-86
2024/01/10 13:59:32;;;;;;;9.90;5.90;;;;;;;;;;4972007;28;20499;-86
2024/01/10 14:01:59;;;;;;;10.60;6.00;;;;;;;;;;4971526;28;20426;-88
2024/01/10 14:04:25;;;;;;;8.20;5.80;;;;;;;;;;4958195;28;20425;-87
2024/01/10 14:06:51;;;;;;;11.73;6.67;;;;;;;;;;4956496;28;20770;-87
2024/01/10 14:09:17;;;;;;;7.97;5.10;;;;;;;;;;4957381;28;20434;-85
2024/01/10 14:11:49;;;;;;;10.27;5.90;;;;;;;;;;4958581;28;20433;-85
2024/01/10 14:14:15;;;;;;;8.43;5.80;;;;;;;;;;4958244;28;20417;-87
2024/01/10 14:16:41;;;;;;;6.73;4.07;;;;;;;;;;4958437;28;20870;-86
2024/01/10 14:19:07;;;;;;;7.23;4.27;;;;;;;;;;4958518;28;20457;-86
2024/01/10 14:21:33;;;;;;;7.73;4.70;;;;;;;;;;4917595;28;20452;-87
2024/01/10 14:23:59;;;;;;;10.20;7.93;;;;;;;;;;4959728;28;20441;-87
2024/01/10 14:26:26;;;;;;;5.50;4.03;;;;;;;;;;4960284;28;20447;-87